sensor_id;sensor_type;location;lat;lon;timestamp;pressure;altitude;pressure_sealevel;temperature;humidity
15694;BME280;7947;48.834;9.132;2023-02-03T00:01:00;99459.91;;;6.55;84.32
15694;BME280;7947;48.834;9.132;2023-02-03T00:04:53;99450.28;;;6.54;84.96
15694;BME280;7947;48.834;9.132;2023-02-03T00:08:11;99443.53;;;6.52;84.48
15694;BME280;7947;48.834;9.132;2023-02-03T00:11:38;99448.03;;;6.51;84.70
15694;BME280;7947;48.834;9.132;2023-02-03T00:14:53;99448.47;;;6.48;85.00
15694;BME280;7947;48.834;9.132;2023-02-03T00:18:11;99441.50;;;6.47;85.03
15694;BME280;7947;48.834;9.132;2023-02-03T00:21:31;99438.22;;;6.52;84.61
15694;BME280;7947;48.834;9.132;2023-02-03T00:24:48;99439.66;;;6.48;85.21
15694;BME280;7947;48.834;9.132;2023-02-03T00:28:17;99443.28;;;6.60;84.22
15694;BME280;7947;48.834;9.132;2023-02-03T00:35:10;99432.38;;;6.61;83.96
15694;BME280;7947;48.834;9.132;2023-02-03T00:38:30;99449.03;;;6.57;84.64
15694;BME280;7947;48.834;9.132;2023-02-03T00:41:42;99456.00;;;6.58;83.66
15694;BME280;7947;48.834;9.132;2023-02-03T00:45:05;99454.78;;;6.54;84.06
15694;BME280;7947;48.834;9.132;2023-02-03T00:48:44;99457.84;;;6.57;84.34
15694;BME280;7947;48.834;9.132;2023-02-03T00:52:01;99460.28;;;6.59;84.17
15694;BME280;7947;48.834;9.132;2023-02-03T00:55:31;99469.34;;;6.51;85.22
15694;BME280;7947;48.834;9.132;2023-02-03T00:59:07;99463.19;;;6.51;85.36
15694;BME280;7947;48.834;9.132;2023-02-03T01:06:39;99455.22;;;6.51;85.56
15694;BME280;7947;48.834;9.132;2023-02-03T01:10:52;99457.00;;;6.57;85.37
15694;BME280;7947;48.834;9.132;2023-02-03T01:14:24;99451.47;;;6.58;85.69
15694;BME280;7947;48.834;9.132;2023-02-03T01:17:44;99434.47;;;6.59;85.62
15694;BME280;7947;48.834;9.132;2023-02-03T01:21:03;99419.22;;;6.66;84.78
15694;BME280;7947;48.834;9.132;2023-02-03T01:24:33;99415.16;;;6.64;85.02
15694;BME280;7947;48.834;9.132;2023-02-03T01:28:04;99417.59;;;6.65;84.88
15694;BME280;7947;48.834;9.132;2023-02-03T01:31:50;99430.69;;;6.67;85.07
15694;BME280;7947;48.834;9.132;2023-02-03T01:35:28;99418.00;;;6.62;84.80
15694;BME280;7947;48.834;9.132;2023-02-03T01:39:28;99412.97;;;6.54;84.93
15694;BME280;7947;48.834;9.132;2023-02-03T01:43:39;99415.19;;;6.57;85.89
15694;BME280;7947;48.834;9.132;2023-02-03T01:47:32;99419.28;;;6.60;85.57
15694;BME280;7947;48.834;9.132;2023-02-03T01:56:00;99428.13;;;6.78;86.13
15694;BME280;7947;48.834;9.132;2023-02-03T02:00:10;99426.91;;;6.81;85.79
15694;BME280;7947;48.834;9.132;2023-02-03T02:08:22;99393.06;;;6.81;85.54
15694;BME280;7947;48.834;9.132;2023-02-03T02:12:36;99379.44;;;6.89;84.76
15694;BME280;7947;48.834;9.132;2023-02-03T02:17:05;99349.41;;;6.76;85.70
15694;BME280;7947;48.834;9.132;2023-02-03T02:25:30;99340.09;;;6.67;85.83
15694;BME280;7947;48.834;9.132;2023-02-03T02:38:55;99332.09;;;6.67;85.74
15694;BME280;7947;48.834;9.132;2023-02-03T02:42:56;99320.22;;;6.63;86.03
15694;BME280;7947;48.834;9.132;2023-02-03T02:47:15;99312.41;;;6.68;86.13
15694;BME280;7947;48.834;9.132;2023-02-03T02:51:34;99356.81;;;6.74;85.67
15694;BME280;7947;48.834;9.132;2023-02-03T03:00:10;99354.97;;;6.74;86.19
15694;BME280;7947;48.834;9.132;2023-02-03T03:03:48;99352.75;;;6.71;86.13
15694;BME280;7947;48.834;9.132;2023-02-03T03:07:46;99337.38;;;6.73;86.03
15694;BME280;7947;48.834;9.132;2023-02-03T03:11:47;99330.75;;;6.76;85.96
15694;BME280;7947;48.834;9.132;2023-02-03T03:19:55;99328.09;;;6.76;85.56
15694;BME280;7947;48.834;9.132;2023-02-03T03:23:34;99321.09;;;6.81;85.12
15694;BME280;7947;48.834;9.132;2023-02-03T03:27:32;99329.13;;;6.75;85.09
15694;BME280;7947;48.834;9.132;2023-02-03T03:30:45;99331.16;;;6.79;85.51
15694;BME280;7947;48.834;9.132;2023-02-03T03:34:09;99353.06;;;6.81;84.28
15694;BME280;7947;48.834;9.132;2023-02-03T03:37:35;99359.66;;;6.79;85.42
15694;BME280;7947;48.834;9.132;2023-02-03T03:41:11;99360.91;;;6.76;85.55
15694;BME280;7947;48.834;9.132;2023-02-03T03:44:46;99364.03;;;6.73;85.29
15694;BME280;7947;48.834;9.132;2023-02-03T03:48:04;99373.41;;;6.76;85.72
15694;BME280;7947;48.834;9.132;2023-02-03T03:51:23;99383.09;;;6.70;86.02
15694;BME280;7947;48.834;9.132;2023-02-03T03:54:34;99392.38;;;6.68;85.84
15694;BME280;7947;48.834;9.132;2023-02-03T03:57:45;99392.28;;;6.74;86.29
15694;BME280;7947;48.834;9.132;2023-02-03T04:01:01;99408.28;;;6.74;86.28
15694;BME280;7947;48.834;9.132;2023-02-03T04:04:10;99415.41;;;6.80;86.57
15694;BME280;7947;48.834;9.132;2023-02-03T04:07:22;99409.63;;;6.83;86.30
15694;BME280;7947;48.834;9.132;2023-02-03T04:10:31;99398.31;;;6.88;85.56
15694;BME280;7947;48.834;9.132;2023-02-03T04:13:38;99406.97;;;6.83;86.09
15694;BME280;7947;48.834;9.132;2023-02-03T04:16:48;99411.72;;;6.81;86.73
15694;BME280;7947;48.834;9.132;2023-02-03T04:19:58;99421.84;;;6.73;87.88
15694;BME280;7947;48.834;9.132;2023-02-03T04:23:05;99414.72;;;6.67;88.48
15694;BME280;7947;48.834;9.132;2023-02-03T04:26:16;99412.28;;;6.65;89.16
15694;BME280;7947;48.834;9.132;2023-02-03T04:29:28;99411.03;;;6.68;89.05
15694;BME280;7947;48.834;9.132;2023-02-03T04:32:48;99398.50;;;6.68;89.74
15694;BME280;7947;48.834;9.132;2023-02-03T04:36:03;99391.91;;;6.71;90.29
15694;BME280;7947;48.834;9.132;2023-02-03T04:39:14;99393.97;;;6.69;90.43
15694;BME280;7947;48.834;9.132;2023-02-03T04:42:24;99386.03;;;6.62;90.49
15694;BME280;7947;48.834;9.132;2023-02-03T04:45:35;99392.03;;;6.58;91.92
15694;BME280;7947;48.834;9.132;2023-02-03T04:48:47;99393.53;;;6.47;92.60
15694;BME280;7947;48.834;9.132;2023-02-03T04:52:05;99400.78;;;6.40;92.39
15694;BME280;7947;48.834;9.132;2023-02-03T04:55:18;99391.72;;;6.48;92.79
15694;BME280;7947;48.834;9.132;2023-02-03T04:58:26;99363.00;;;6.50;92.67
15694;BME280;7947;48.834;9.132;2023-02-03T05:01:34;99368.75;;;6.47;92.18
15694;BME280;7947;48.834;9.132;2023-02-03T05:04:44;99368.16;;;6.45;91.99
15694;BME280;7947;48.834;9.132;2023-02-03T05:07:54;99363.91;;;6.37;91.96
15694;BME280;7947;48.834;9.132;2023-02-03T05:11:07;99371.84;;;6.44;92.93
15694;BME280;7947;48.834;9.132;2023-02-03T05:14:17;99387.69;;;6.38;92.25
15694;BME280;7947;48.834;9.132;2023-02-03T05:17:27;99397.78;;;6.30;93.02
15694;BME280;7947;48.834;9.132;2023-02-03T05:20:35;99392.94;;;6.20;93.67
15694;BME280;7947;48.834;9.132;2023-02-03T05:23:52;99402.50;;;6.28;94.07
15694;BME280;7947;48.834;9.132;2023-02-03T05:26:59;99396.56;;;6.26;94.49
15694;BME280;7947;48.834;9.132;2023-02-03T05:30:11;99404.03;;;6.17;95.03
15694;BME280;7947;48.834;9.132;2023-02-03T05:33:15;99398.97;;;6.09;95.71
15694;BME280;7947;48.834;9.132;2023-02-03T05:36:18;99401.22;;;6.06;96.07
15694;BME280;7947;48.834;9.132;2023-02-03T05:39:24;99394.91;;;6.00;97.23
15694;BME280;7947;48.834;9.132;2023-02-03T05:42:29;99400.81;;;6.02;97.86
15694;BME280;7947;48.834;9.132;2023-02-03T05:45:31;99402.03;;;6.06;96.67
15694;BME280;7947;48.834;9.132;2023-02-03T05:48:34;99397.09;;;6.10;96.65
15694;BME280;7947;48.834;9.132;2023-02-03T05:51:37;99407.31;;;6.13;96.18
15694;BME280;7947;48.834;9.132;2023-02-03T05:54:41;99395.22;;;6.17;96.04
15694;BME280;7947;48.834;9.132;2023-02-03T05:57:44;99385.53;;;6.22;95.17
15694;BME280;7947;48.834;9.132;2023-02-03T06:00:47;99376.03;;;6.33;94.64
15694;BME280;7947;48.834;9.132;2023-02-03T06:03:49;99379.09;;;6.36;94.10
15694;BME280;7947;48.834;9.132;2023-02-03T06:06:52;99383.03;;;6.27;93.93
15694;BME280;7947;48.834;9.132;2023-02-03T06:09:57;99369.56;;;6.22;95.66
15694;BME280;7947;48.834;9.132;2023-02-03T06:13:07;99361.72;;;6.27;94.95
15694;BME280;7947;48.834;9.132;2023-02-03T06:16:11;99354.56;;;6.28;95.08
15694;BME280;7947;48.834;9.132;2023-02-03T06:19:13;99358.44;;;6.32;94.42
15694;BME280;7947;48.834;9.132;2023-02-03T06:22:17;99368.25;;;6.31;94.67
15694;BME280;7947;48.834;9.132;2023-02-03T06:25:21;99383.00;;;6.34;94.33
15694;BME280;7947;48.834;9.132;2023-02-03T06:28:24;99385.63;;;6.41;93.94
15694;BME280;7947;48.834;9.132;2023-02-03T06:31:28;99382.47;;;6.50;92.80
15694;BME280;7947;48.834;9.132;2023-02-03T06:34:31;99377.75;;;6.52;92.89
15694;BME280;7947;48.834;9.132;2023-02-03T06:37:34;99374.19;;;6.58;92.53
15694;BME280;7947;48.834;9.132;2023-02-03T06:40:39;99376.66;;;6.60;92.31
15694;BME280;7947;48.834;9.132;2023-02-03T06:43:42;99374.94;;;6.65;91.47
15694;BME280;7947;48.834;9.132;2023-02-03T06:46:45;99363.09;;;6.61;92.37
15694;BME280;7947;48.834;9.132;2023-02-03T06:49:47;99360.66;;;6.60;92.54
15694;BME280;7947;48.834;9.132;2023-02-03T06:52:52;99357.16;;;6.59;93.71
15694;BME280;7947;48.834;9.132;2023-02-03T06:55:56;99354.97;;;6.56;93.17
15694;BME280;7947;48.834;9.132;2023-02-03T06:58:59;99346.56;;;6.53;93.53
15694;BME280;7947;48.834;9.132;2023-02-03T07:02:02;99345.31;;;6.55;93.08
15694;BME280;7947;48.834;9.132;2023-02-03T07:05:05;99351.28;;;6.51;93.19
15694;BME280;7947;48.834;9.132;2023-02-03T07:08:08;99337.38;;;6.49;93.19
15694;BME280;7947;48.834;9.132;2023-02-03T07:11:12;99330.06;;;6.44;93.89
15694;BME280;7947;48.834;9.132;2023-02-03T07:19:44;99336.78;;;6.47;94.07
15694;BME280;7947;48.834;9.132;2023-02-03T07:22:56;99325.69;;;6.50;93.30
15694;BME280;7947;48.834;9.132;2023-02-03T07:26:17;99339.38;;;6.53;91.87
15694;BME280;7947;48.834;9.132;2023-02-03T07:30:01;99343.97;;;6.46;93.01
15694;BME280;7947;48.834;9.132;2023-02-03T07:33:16;99341.72;;;6.43;93.59
15694;BME280;7947;48.834;9.132;2023-02-03T07:36:38;99339.88;;;6.44;92.12
15694;BME280;7947;48.834;9.132;2023-02-03T07:40:05;99350.31;;;6.45;93.09
15694;BME280;7947;48.834;9.132;2023-02-03T07:43:14;99364.25;;;6.47;93.12
15694;BME280;7947;48.834;9.132;2023-02-03T07:46:32;99381.06;;;6.48;93.35
15694;BME280;7947;48.834;9.132;2023-02-03T07:50:04;99384.94;;;6.45;93.71
15694;BME280;7947;48.834;9.132;2023-02-03T07:53:32;99386.59;;;6.46;94.43
15694;BME280;7947;48.834;9.132;2023-02-03T07:56:41;99392.94;;;6.45;93.37
15694;BME280;7947;48.834;9.132;2023-02-03T07:59:50;99396.22;;;6.47;93.35
15694;BME280;7947;48.834;9.132;2023-02-03T08:02:58;99403.34;;;6.53;92.68
15694;BME280;7947;48.834;9.132;2023-02-03T08:06:16;99424.63;;;6.60;92.67
15694;BME280;7947;48.834;9.132;2023-02-03T08:09:43;99405.75;;;6.61;92.82
15694;BME280;7947;48.834;9.132;2023-02-03T08:12:54;99415.78;;;6.59;92.22
15694;BME280;7947;48.834;9.132;2023-02-03T08:16:07;99417.16;;;6.68;91.77
15694;BME280;7947;48.834;9.132;2023-02-03T08:19:16;99419.31;;;6.78;91.97
15694;BME280;7947;48.834;9.132;2023-02-03T08:22:37;99424.13;;;6.69;92.78
15694;BME280;7947;48.834;9.132;2023-02-03T08:25:49;99429.38;;;6.76;92.83
15694;BME280;7947;48.834;9.132;2023-02-03T08:28:56;99424.88;;;6.76;93.62
15694;BME280;7947;48.834;9.132;2023-02-03T08:32:09;99409.84;;;6.82;93.21
15694;BME280;7947;48.834;9.132;2023-02-03T08:35:16;99418.22;;;6.85;94.07
15694;BME280;7947;48.834;9.132;2023-02-03T08:38:24;99411.66;;;6.88;94.02
15694;BME280;7947;48.834;9.132;2023-02-03T08:41:45;99423.66;;;6.97;93.79
15694;BME280;7947;48.834;9.132;2023-02-03T08:44:53;99432.66;;;7.02;93.81
15694;BME280;7947;48.834;9.132;2023-02-03T08:48:31;99433.38;;;7.09;93.72
15694;BME280;7947;48.834;9.132;2023-02-03T08:52:15;99434.72;;;7.00;94.30
15694;BME280;7947;48.834;9.132;2023-02-03T08:55:29;99432.34;;;7.10;94.52
15694;BME280;7947;48.834;9.132;2023-02-03T08:59:27;99432.34;;;7.10;93.82
15694;BME280;7947;48.834;9.132;2023-02-03T09:02:36;99430.72;;;7.09;93.61
15694;BME280;7947;48.834;9.132;2023-02-03T09:06:01;99415.97;;;7.07;94.82
15694;BME280;7947;48.834;9.132;2023-02-03T09:09:24;99401.00;;;7.24;93.28
15694;BME280;7947;48.834;9.132;2023-02-03T09:12:37;99404.22;;;7.32;92.88
15694;BME280;7947;48.834;9.132;2023-02-03T09:16:13;99400.72;;;7.32;92.23
15694;BME280;7947;48.834;9.132;2023-02-03T09:19:21;99396.56;;;7.36;92.27
15694;BME280;7947;48.834;9.132;2023-02-03T09:22:27;99406.78;;;7.57;92.79
15694;BME280;7947;48.834;9.132;2023-02-03T09:25:35;99391.66;;;7.69;92.63
15694;BME280;7947;48.834;9.132;2023-02-03T09:28:54;99401.72;;;7.85;91.75
15694;BME280;7947;48.834;9.132;2023-02-03T09:32:35;99400.28;;;8.01;90.50
15694;BME280;7947;48.834;9.132;2023-02-03T09:36:12;99386.16;;;8.23;90.16
15694;BME280;7947;48.834;9.132;2023-02-03T09:39:21;99400.06;;;8.32;87.91
15694;BME280;7947;48.834;9.132;2023-02-03T09:43:07;99393.22;;;8.36;87.74
15694;BME280;7947;48.834;9.132;2023-02-03T09:46:38;99414.38;;;8.49;86.54
15694;BME280;7947;48.834;9.132;2023-02-03T09:50:18;99397.25;;;8.27;86.37
15694;BME280;7947;48.834;9.132;2023-02-03T09:53:38;99404.94;;;8.17;85.53
15694;BME280;7947;48.834;9.132;2023-02-03T09:57:00;99406.81;;;8.46;85.12
15694;BME280;7947;48.834;9.132;2023-02-03T10:00:18;99392.44;;;9.17;81.19
15694;BME280;7947;48.834;9.132;2023-02-03T10:03:36;99381.47;;;9.30;80.55
15694;BME280;7947;48.834;9.132;2023-02-03T10:06:52;99387.03;;;9.40;80.77
15694;BME280;7947;48.834;9.132;2023-02-03T10:10:16;99377.13;;;9.80;77.40
15694;BME280;7947;48.834;9.132;2023-02-03T10:14:22;99384.75;;;10.94;73.77
15694;BME280;7947;48.834;9.132;2023-02-03T10:17:53;99388.84;;;10.47;72.03
15694;BME280;7947;48.834;9.132;2023-02-03T10:21:47;99410.25;;;10.02;76.01
15694;BME280;7947;48.834;9.132;2023-02-03T10:30:49;99412.69;;;8.89;79.73
15694;BME280;7947;48.834;9.132;2023-02-03T10:35:10;99416.84;;;8.62;80.77
15694;BME280;7947;48.834;9.132;2023-02-03T10:42:56;99380.91;;;8.47;82.62
15694;BME280;7947;48.834;9.132;2023-02-03T10:51:16;99353.84;;;8.89;79.13
15694;BME280;7947;48.834;9.132;2023-02-03T10:55:30;99360.53;;;9.94;77.36
15694;BME280;7947;48.834;9.132;2023-02-03T10:58:49;99363.78;;;10.25;74.41
15694;BME280;7947;48.834;9.132;2023-02-03T11:02:07;99357.22;;;10.04;74.92
15694;BME280;7947;48.834;9.132;2023-02-03T11:05:23;99364.13;;;10.00;73.89
15694;BME280;7947;48.834;9.132;2023-02-03T11:08:38;99381.00;;;9.72;76.31
15694;BME280;7947;48.834;9.132;2023-02-03T11:12:13;99370.50;;;9.43;76.98
15694;BME280;7947;48.834;9.132;2023-02-03T11:15:54;99375.31;;;9.06;77.11
15694;BME280;7947;48.834;9.132;2023-02-03T11:19:13;99355.44;;;8.67;78.45
15694;BME280;7947;48.834;9.132;2023-02-03T11:22:48;99345.00;;;8.77;79.43
15694;BME280;7947;48.834;9.132;2023-02-03T11:26:12;99337.09;;;8.82;78.93
15694;BME280;7947;48.834;9.132;2023-02-03T11:29:30;99343.38;;;8.76;79.34
15694;BME280;7947;48.834;9.132;2023-02-03T11:32:41;99331.63;;;8.77;79.97
15694;BME280;7947;48.834;9.132;2023-02-03T11:36:08;99330.59;;;8.78;79.61
15694;BME280;7947;48.834;9.132;2023-02-03T11:39:29;99325.69;;;8.87;79.18
15694;BME280;7947;48.834;9.132;2023-02-03T11:42:45;99325.69;;;8.87;79.01
15694;BME280;7947;48.834;9.132;2023-02-03T11:46:14;99325.34;;;8.72;78.37
15694;BME280;7947;48.834;9.132;2023-02-03T11:53:41;99311.41;;;8.70;78.37
15694;BME280;7947;48.834;9.132;2023-02-03T11:57:31;99303.72;;;8.73;77.90
15694;BME280;7947;48.834;9.132;2023-02-03T12:01:00;99301.16;;;8.78;77.46
15694;BME280;7947;48.834;9.132;2023-02-03T12:04:34;99307.69;;;8.71;78.00
15694;BME280;7947;48.834;9.132;2023-02-03T12:08:01;99299.44;;;8.72;77.88
15694;BME280;7947;48.834;9.132;2023-02-03T12:11:23;99294.53;;;8.69;78.38
15694;BME280;7947;48.834;9.132;2023-02-03T12:14:52;99306.72;;;8.65;78.22
15694;BME280;7947;48.834;9.132;2023-02-03T12:18:18;99303.63;;;8.57;78.83
15694;BME280;7947;48.834;9.132;2023-02-03T12:21:46;99301.88;;;8.51;79.62
15694;BME280;7947;48.834;9.132;2023-02-03T12:25:00;99303.38;;;8.47;77.91
15694;BME280;7947;48.834;9.132;2023-02-03T12:28:25;99310.47;;;8.41;76.81
15694;BME280;7947;48.834;9.132;2023-02-03T12:31:48;99307.22;;;8.39;78.51
15694;BME280;7947;48.834;9.132;2023-02-03T12:35:25;99303.28;;;8.42;78.56
15694;BME280;7947;48.834;9.132;2023-02-03T12:39:14;99310.00;;;8.44;78.21
15694;BME280;7947;48.834;9.132;2023-02-03T12:42:29;99292.00;;;8.40;77.70
15694;BME280;7947;48.834;9.132;2023-02-03T12:46:13;99274.78;;;8.36;77.90
15694;BME280;7947;48.834;9.132;2023-02-03T12:49:38;99277.00;;;8.39;77.51
15694;BME280;7947;48.834;9.132;2023-02-03T12:53:11;99266.19;;;8.34;77.91
15694;BME280;7947;48.834;9.132;2023-02-03T12:56:44;99236.91;;;8.27;78.32
15694;BME280;7947;48.834;9.132;2023-02-03T13:00:09;99222.38;;;8.35;78.57
15694;BME280;7947;48.834;9.132;2023-02-03T13:04:23;99231.31;;;8.40;78.13
15694;BME280;7947;48.834;9.132;2023-02-03T13:08:33;99226.13;;;8.34;77.51
15694;BME280;7947;48.834;9.132;2023-02-03T13:12:30;99219.00;;;8.39;77.03
15694;BME280;7947;48.834;9.132;2023-02-03T13:16:42;99203.47;;;8.36;77.44
15694;BME280;7947;48.834;9.132;2023-02-03T13:25:47;99219.13;;;8.33;77.40
15694;BME280;7947;48.834;9.132;2023-02-03T13:29:43;99209.25;;;8.33;76.81
15694;BME280;7947;48.834;9.132;2023-02-03T13:33:51;99208.91;;;8.30;77.66
15694;BME280;7947;48.834;9.132;2023-02-03T13:41:39;99202.75;;;8.29;77.72
15694;BME280;7947;48.834;9.132;2023-02-03T13:45:29;99185.09;;;8.28;77.99
15694;BME280;7947;48.834;9.132;2023-02-03T13:48:53;99178.34;;;8.26;78.59
15694;BME280;7947;48.834;9.132;2023-02-03T13:52:32;99184.53;;;8.26;78.74
15694;BME280;7947;48.834;9.132;2023-02-03T13:55:57;99187.84;;;8.21;78.65
15694;BME280;7947;48.834;9.132;2023-02-03T13:59:44;99196.44;;;8.23;78.78
15694;BME280;7947;48.834;9.132;2023-02-03T14:03:03;99189.72;;;8.21;79.12
15694;BME280;7947;48.834;9.132;2023-02-03T14:07:19;99191.69;;;8.14;79.60
15694;BME280;7947;48.834;9.132;2023-02-03T14:10:41;99185.41;;;8.20;78.77
15694;BME280;7947;48.834;9.132;2023-02-03T14:21:35;99202.97;;;8.16;79.44
15694;BME280;7947;48.834;9.132;2023-02-03T14:25:09;99194.38;;;8.14;79.61
15694;BME280;7947;48.834;9.132;2023-02-03T14:28:35;99197.63;;;8.16;79.92
15694;BME280;7947;48.834;9.132;2023-02-03T14:31:57;99186.59;;;8.24;79.68
15694;BME280;7947;48.834;9.132;2023-02-03T14:35:21;99203.66;;;8.23;79.59
15694;BME280;7947;48.834;9.132;2023-02-03T14:38:52;99190.91;;;8.25;79.84
15694;BME280;7947;48.834;9.132;2023-02-03T14:46:10;99205.53;;;8.23;79.98
15694;BME280;7947;48.834;9.132;2023-02-03T14:49:46;99207.81;;;8.19;79.92
15694;BME280;7947;48.834;9.132;2023-02-03T14:53:36;99197.28;;;8.12;80.45
15694;BME280;7947;48.834;9.132;2023-02-03T14:57:11;99196.22;;;8.13;80.36
15694;BME280;7947;48.834;9.132;2023-02-03T15:00:30;99216.09;;;8.17;80.34
15694;BME280;7947;48.834;9.132;2023-02-03T15:03:39;99213.75;;;8.21;80.63
15694;BME280;7947;48.834;9.132;2023-02-03T15:06:51;99200.88;;;8.18;80.88
15694;BME280;7947;48.834;9.132;2023-02-03T15:10:13;99194.72;;;8.17;80.75
15694;BME280;7947;48.834;9.132;2023-02-03T15:13:54;99194.25;;;8.20;80.54
15694;BME280;7947;48.834;9.132;2023-02-03T15:17:19;99199.22;;;8.17;81.12
15694;BME280;7947;48.834;9.132;2023-02-03T15:20:32;99196.47;;;8.12;81.34
15694;BME280;7947;48.834;9.132;2023-02-03T15:24:11;99200.97;;;8.11;81.25
15694;BME280;7947;48.834;9.132;2023-02-03T15:27:50;99202.81;;;8.11;81.51
15694;BME280;7947;48.834;9.132;2023-02-03T15:31:29;99212.97;;;8.09;81.41
15694;BME280;7947;48.834;9.132;2023-02-03T15:35:03;99224.44;;;8.09;81.59
15694;BME280;7947;48.834;9.132;2023-02-03T15:38:59;99219.09;;;8.09;81.44
15694;BME280;7947;48.834;9.132;2023-02-03T15:42:32;99246.28;;;8.06;81.41
15694;BME280;7947;48.834;9.132;2023-02-03T15:46:01;99251.03;;;8.04;81.78
15694;BME280;7947;48.834;9.132;2023-02-03T15:50:00;99245.13;;;8.02;81.96
15694;BME280;7947;48.834;9.132;2023-02-03T15:53:29;99261.41;;;8.12;81.54
15694;BME280;7947;48.834;9.132;2023-02-03T15:57:03;99257.56;;;8.08;82.30
15694;BME280;7947;48.834;9.132;2023-02-03T16:01:27;99274.84;;;8.06;82.88
15694;BME280;7947;48.834;9.132;2023-02-03T16:05:31;99269.38;;;8.01;83.64
15694;BME280;7947;48.834;9.132;2023-02-03T16:13:51;99266.72;;;8.01;86.62
15694;BME280;7947;48.834;9.132;2023-02-03T16:18:03;99274.91;;;7.88;87.86
15694;BME280;7947;48.834;9.132;2023-02-03T19:10:08;99305.81;;;7.84;91.84
15694;BME280;7947;48.834;9.132;2023-02-03T20:54:35;99326.63;;;7.93;91.54
15694;BME280;7947;48.834;9.132;2023-02-03T20:58:48;99323.97;;;7.93;91.45
15694;BME280;7947;48.834;9.132;2023-02-03T21:02:40;99333.59;;;7.94;91.14
15694;BME280;7947;48.834;9.132;2023-02-03T23:16:53;99423.56;;;7.94;96.65
15694;BME280;7947;48.834;9.132;2023-02-03T23:25:24;99412.28;;;7.92;96.75
15694;BME280;7947;48.834;9.132;2023-02-03T23:29:44;99414.06;;;7.98;96.31
15694;BME280;7947;48.834;9.132;2023-02-03T23:38:12;99407.78;;;7.92;96.37
15694;BME280;7947;48.834;9.132;2023-02-03T23:42:01;99398.50;;;7.95;96.61
15694;BME280;7947;48.834;9.132;2023-02-03T23:46:09;99413.34;;;7.91;97.17
15694;BME280;7947;48.834;9.132;2023-02-03T23:51:08;99431.00;;;7.92;97.46
